Terminal Aerodrome Forecast
Issued by NWS Brownsville, TX

Home | Current Version | Previous Version | Text Only | Print | Product List | Glossary On
Versions: 1 2 3 4 5 6 7 8 9 10 11 12 13 14 15 16 17 18 19 20 21 22 23 24 25 26
000
FTUS44 KBRO 282336
TAFHRL
TAF
KHRL 282336Z 2900/2924 16023G30KT P6SM SCT250
     FM290300 16015G22KT P6SM SCT015
     FM290800 16017G24KT 6SM HZ OVC015
     FM291500 17025G32KT P6SM BKN040
     FM292000 15020G27KT P6SM SCT050 BKN250=

USA.gov is the U.S. government's official web portal to all federal, state and local government web resources and services.